»·PEaware :: N969DA KSBP-KSBA

N969DA :: KSBP-KSBA

FLIGHT INFORMATION

Flight Status: Arrived
Operator: Privately registered:
United States
More flights under this callsign
Pilot: Anonymous 20880 (20880)
Aircraft: Unknown
(DA62)
More flights by this aircraft type
Origin: KSBP San Luis Co Regl
United States
Destination: KSBA Santa Barbara Mun
United States
More flights between these airports :: More routes between these airports
Route: ZORAN OINGO
File this flight plan on PilotEdge
Remarks:
Altitude:
(Current/Filed)
2,500ft
Speed:
(Current/Filed)
150kts
Departed: 25-Jan-19 11:50 AM
Arrived: 25-Jan-19 12:35 PM
Distance/Time
Traveled:
62nm/0:45
Distance/Time
To Go:
Arrived

Flight Plot

Page will automatically refresh every two minutes.

Flight plan parsing failed; only flown route is shown


Map Options




Map Legend


Flown Route
Filed Route
Departure Airport
Arrival Airport
Navaid (VOR, NDB)
Fix

Horizontal Profiles

Position Reports

Time Latitude Longitude Heading Altitude Ground
Speed
25-Jan-19 11:43 35.234474 -120.632885 230 214ft 0kts
25-Jan-19 11:44 35.234474 -120.632885 230 214ft 0kts
25-Jan-19 11:45 35.234474 -120.632885 230 214ft 0kts
25-Jan-19 11:46 35.234394 -120.633379 291 212ft 6kts
25-Jan-19 11:47 35.234143 -120.633835 53 211ft 7kts
25-Jan-19 11:48 35.233267 -120.632374 206 212ft 0kts
25-Jan-19 11:49 35.239356 -120.644318 306 475ft 86kts
25-Jan-19 11:50 35.246446 -120.674667 220 1306ft 130kts
25-Jan-19 11:51 35.214932 -120.702454 212 1891ft 146kts
25-Jan-19 11:52 35.179574 -120.730304 212 2307ft 148kts
25-Jan-19 11:53 35.139449 -120.742930 181 2503ft 162kts
25-Jan-19 11:54 35.093494 -120.744528 181 2500ft 167kts
25-Jan-19 11:55 35.049431 -120.746062 181 2496ft 146kts
25-Jan-19 11:56 35.010020 -120.748666 184 2499ft 140kts
25-Jan-19 11:57 34.971491 -120.752912 184 2499ft 139kts
25-Jan-19 11:58 34.933083 -120.757218 183 2499ft 138kts
25-Jan-19 11:59 34.894979 -120.761494 183 2499ft 137kts
25-Jan-19 12:00 34.857494 -120.765703 183 2499ft 136kts
25-Jan-19 12:01 34.826193 -120.769216 183 2499ft 136kts
25-Jan-19 12:02 34.794246 -120.771731 183 2491ft 138kts
25-Jan-19 12:03 34.759601 -120.773395 183 2490ft 139kts
25-Jan-19 12:04 34.724551 -120.775078 183 2490ft 140kts
25-Jan-19 12:05 34.688655 -120.776793 183 2490ft 140kts
25-Jan-19 12:06 34.653992 -120.778422 183 2490ft 140kts
25-Jan-19 12:07 34.617680 -120.780146 183 2490ft 140kts
25-Jan-19 12:08 34.580905 -120.781886 183 2490ft 140kts
25-Jan-19 12:09 34.545595 -120.782325 162 2490ft 140kts
25-Jan-19 12:10 34.513608 -120.763024 145 2491ft 141kts
25-Jan-19 12:11 34.484803 -120.736265 136 2537ft 140kts
25-Jan-19 12:12 34.456347 -120.703369 136 2528ft 142kts
25-Jan-19 12:13 34.427592 -120.670600 136 2527ft 142kts
25-Jan-19 12:14 34.401533 -120.635500 113 2529ft 140kts
25-Jan-19 12:15 34.385442 -120.592489 106 2528ft 138kts
25-Jan-19 12:16 34.373619 -120.548366 97 2522ft 136kts
25-Jan-19 12:17 34.376676 -120.503527 83 2526ft 133kts
25-Jan-19 12:18 34.380179 -120.459029 83 2526ft 132kts
25-Jan-19 12:19 34.383580 -120.414427 83 2524ft 133kts
25-Jan-19 12:20 34.386975 -120.369669 83 2523ft 134kts
25-Jan-19 12:21 34.390371 -120.325241 83 2521ft 136kts
25-Jan-19 12:22 34.393840 -120.279658 84 2520ft 137kts
25-Jan-19 12:23 34.397340 -120.233408 84 2518ft 137kts
25-Jan-19 12:24 34.400811 -120.187212 83 2514ft 138kts
25-Jan-19 12:25 34.404302 -120.140603 83 2511ft 139kts
25-Jan-19 12:26 34.407803 -120.093678 83 2507ft 140kts
25-Jan-19 12:27 34.411321 -120.046262 84 2504ft 142kts
25-Jan-19 12:28 34.414846 -119.998509 84 2501ft 143kts
25-Jan-19 12:29 34.418316 -119.951046 84 2501ft 140kts
25-Jan-19 12:30 34.421649 -119.905298 85 2500ft 133kts
25-Jan-19 12:31 34.421703 -119.860695 101 2371ft 134kts
25-Jan-19 12:32 34.418259 -119.817100 90 1353ft 113kts
25-Jan-19 12:33 34.427988 -119.817851 275 471ft 94kts
25-Jan-19 12:34 34.428661 -119.838958 345 14ft 15kts
25-Jan-19 12:35 34.429392 -119.839198 345 14ft 18kts
25-Jan-19 12:36 34.431320 -119.839307 178 14ft 0kts
25-Jan-19 12:37 34.431320 -119.839307 178 14ft 0kts

Navigation Log

Ident Type
Flight plan parsing failed, navigation log unavailable